sensor_id;sensor_type;location;lat;lon;timestamp;pressure;altitude;pressure_sealevel;temperature
65290;BMP180;51893;59.754;10.110;2022-10-15T00:01:48;100025.40;;;12.00
65290;BMP180;51893;59.754;10.110;2022-10-15T00:04:16;100025.80;;;12.00
65290;BMP180;51893;59.754;10.110;2022-10-15T00:06:46;100021.20;;;12.00
65290;BMP180;51893;59.754;10.110;2022-10-15T00:09:14;100014.20;;;12.00
65290;BMP180;51893;59.754;10.110;2022-10-15T00:11:44;100007.60;;;12.00
65290;BMP180;51893;59.754;10.110;2022-10-15T00:14:12;99998.60;;;12.00
65290;BMP180;51893;59.754;10.110;2022-10-15T00:16:39;99992.20;;;11.98
65290;BMP180;51893;59.754;10.110;2022-10-15T00:19:09;99990.20;;;11.90
65290;BMP180;51893;59.754;10.110;2022-10-15T00:21:38;99976.80;;;11.90
65290;BMP180;51893;59.754;10.110;2022-10-15T00:24:07;99973.00;;;11.90
65290;BMP180;51893;59.754;10.110;2022-10-15T00:26:38;99975.00;;;11.90
65290;BMP180;51893;59.754;10.110;2022-10-15T00:29:06;99972.20;;;11.90
65290;BMP180;51893;59.754;10.110;2022-10-15T00:31:38;99965.20;;;11.90
65290;BMP180;51893;59.754;10.110;2022-10-15T00:34:08;99963.20;;;11.90
65290;BMP180;51893;59.754;10.110;2022-10-15T00:36:36;99954.80;;;11.90
65290;BMP180;51893;59.754;10.110;2022-10-15T00:39:06;99949.60;;;11.90
65290;BMP180;51893;59.754;10.110;2022-10-15T00:41:44;99944.60;;;11.90
65290;BMP180;51893;59.754;10.110;2022-10-15T00:47:23;99932.40;;;11.82
65290;BMP180;51893;59.754;10.110;2022-10-15T00:50:08;99939.60;;;11.80
65290;BMP180;51893;59.754;10.110;2022-10-15T00:55:40;99937.40;;;11.80
65290;BMP180;51893;59.754;10.110;2022-10-15T00:58:14;99935.20;;;11.80
65290;BMP180;51893;59.754;10.110;2022-10-15T01:00:44;99931.20;;;11.80
65290;BMP180;51893;59.754;10.110;2022-10-15T01:03:13;99921.40;;;11.80
65290;BMP180;51893;59.754;10.110;2022-10-15T01:05:43;99916.60;;;11.80
65290;BMP180;51893;59.754;10.110;2022-10-15T01:08:14;99921.20;;;11.80
65290;BMP180;51893;59.754;10.110;2022-10-15T01:10:55;99919.40;;;11.90
65290;BMP180;51893;59.754;10.110;2022-10-15T01:13:46;99922.60;;;11.90
65290;BMP180;51893;59.754;10.110;2022-10-15T01:19:13;99911.60;;;11.90
65290;BMP180;51893;59.754;10.110;2022-10-15T01:25:29;99899.40;;;12.00
65290;BMP180;51893;59.754;10.110;2022-10-15T01:28:53;99886.60;;;12.00
65290;BMP180;51893;59.754;10.110;2022-10-15T01:31:41;99894.60;;;12.00
65290;BMP180;51893;59.754;10.110;2022-10-15T01:34:30;99893.00;;;12.00
65290;BMP180;51893;59.754;10.110;2022-10-15T01:42:57;99869.20;;;12.00
65290;BMP180;51893;59.754;10.110;2022-10-15T01:45:39;99870.60;;;12.00
65290;BMP180;51893;59.754;10.110;2022-10-15T01:48:10;99875.20;;;12.00
65290;BMP180;51893;59.754;10.110;2022-10-15T01:50:45;99873.60;;;12.00
65290;BMP180;51893;59.754;10.110;2022-10-15T01:53:20;99862.60;;;12.00
65290;BMP180;51893;59.754;10.110;2022-10-15T01:55:59;99860.60;;;12.00
65290;BMP180;51893;59.754;10.110;2022-10-15T01:58:31;99855.80;;;12.00
65290;BMP180;51893;59.754;10.110;2022-10-15T02:00:59;99851.60;;;12.02
65290;BMP180;51893;59.754;10.110;2022-10-15T02:03:30;99849.80;;;12.00
65290;BMP180;51893;59.754;10.110;2022-10-15T02:06:09;99848.40;;;12.00
65290;BMP180;51893;59.754;10.110;2022-10-15T02:09:16;99835.60;;;12.00
65290;BMP180;51893;59.754;10.110;2022-10-15T02:12:05;99844.40;;;12.10
65290;BMP180;51893;59.754;10.110;2022-10-15T02:17:28;99830.20;;;12.02
65290;BMP180;51893;59.754;10.110;2022-10-15T02:20:23;99822.80;;;12.02
65290;BMP180;51893;59.754;10.110;2022-10-15T02:26:17;99804.80;;;12.00
65290;BMP180;51893;59.754;10.110;2022-10-15T02:28:53;99803.80;;;12.00
65290;BMP180;51893;59.754;10.110;2022-10-15T02:31:25;99794.40;;;12.00
65290;BMP180;51893;59.754;10.110;2022-10-15T02:34:04;99794.80;;;12.00
65290;BMP180;51893;59.754;10.110;2022-10-15T02:36:38;99787.60;;;12.00
65290;BMP180;51893;59.754;10.110;2022-10-15T02:39:13;99781.00;;;12.00
65290;BMP180;51893;59.754;10.110;2022-10-15T02:41:46;99773.20;;;11.98
65290;BMP180;51893;59.754;10.110;2022-10-15T02:44:18;99767.80;;;11.90
65290;BMP180;51893;59.754;10.110;2022-10-15T02:46:47;99764.40;;;11.90
65290;BMP180;51893;59.754;10.110;2022-10-15T02:49:15;99762.80;;;11.90
65290;BMP180;51893;59.754;10.110;2022-10-15T02:51:44;99761.20;;;12.00
65290;BMP180;51893;59.754;10.110;2022-10-15T02:54:12;99753.80;;;12.00
65290;BMP180;51893;59.754;10.110;2022-10-15T02:56:40;99745.40;;;12.00
65290;BMP180;51893;59.754;10.110;2022-10-15T02:59:08;99737.60;;;12.00
65290;BMP180;51893;59.754;10.110;2022-10-15T03:01:36;99737.80;;;12.00
65290;BMP180;51893;59.754;10.110;2022-10-15T03:04:04;99729.60;;;11.96
65290;BMP180;51893;59.754;10.110;2022-10-15T03:06:32;99740.20;;;11.92
65290;BMP180;51893;59.754;10.110;2022-10-15T03:09:00;99741.00;;;11.90
65290;BMP180;51893;59.754;10.110;2022-10-15T03:11:28;99734.20;;;11.90
65290;BMP180;51893;59.754;10.110;2022-10-15T03:13:56;99713.40;;;11.90
65290;BMP180;51893;59.754;10.110;2022-10-15T03:16:24;99709.20;;;11.90
65290;BMP180;51893;59.754;10.110;2022-10-15T03:18:54;99714.60;;;11.90
65290;BMP180;51893;59.754;10.110;2022-10-15T03:21:22;99708.40;;;11.90
65290;BMP180;51893;59.754;10.110;2022-10-15T03:23:50;99713.60;;;11.90
65290;BMP180;51893;59.754;10.110;2022-10-15T03:26:20;99725.80;;;11.90
65290;BMP180;51893;59.754;10.110;2022-10-15T03:28:49;99718.20;;;11.90
65290;BMP180;51893;59.754;10.110;2022-10-15T03:31:20;99696.80;;;11.90
65290;BMP180;51893;59.754;10.110;2022-10-15T03:33:48;99675.60;;;11.98
65290;BMP180;51893;59.754;10.110;2022-10-15T03:36:16;99677.80;;;11.98
65290;BMP180;51893;59.754;10.110;2022-10-15T03:38:43;99672.20;;;11.94
65290;BMP180;51893;59.754;10.110;2022-10-15T03:41:12;99666.40;;;11.98
65290;BMP180;51893;59.754;10.110;2022-10-15T03:43:40;99672.20;;;12.00
65290;BMP180;51893;59.754;10.110;2022-10-15T03:46:09;99671.20;;;12.00
65290;BMP180;51893;59.754;10.110;2022-10-15T03:48:38;99661.40;;;12.00
65290;BMP180;51893;59.754;10.110;2022-10-15T03:51:06;99676.80;;;12.00
65290;BMP180;51893;59.754;10.110;2022-10-15T03:53:34;99714.80;;;12.00
65290;BMP180;51893;59.754;10.110;2022-10-15T03:56:04;99733.80;;;12.00
65290;BMP180;51893;59.754;10.110;2022-10-15T03:58:33;99736.80;;;12.00
65290;BMP180;51893;59.754;10.110;2022-10-15T04:01:08;99718.40;;;12.00
65290;BMP180;51893;59.754;10.110;2022-10-15T04:03:38;99721.40;;;12.04
65290;BMP180;51893;59.754;10.110;2022-10-15T04:06:09;99726.40;;;12.10
65290;BMP180;51893;59.754;10.110;2022-10-15T04:08:37;99742.60;;;12.12
65290;BMP180;51893;59.754;10.110;2022-10-15T04:11:07;99745.20;;;12.10
65290;BMP180;51893;59.754;10.110;2022-10-15T04:13:35;99754.00;;;12.10
65290;BMP180;51893;59.754;10.110;2022-10-15T04:16:04;99756.00;;;12.10
65290;BMP180;51893;59.754;10.110;2022-10-15T04:18:35;99709.60;;;12.10
65290;BMP180;51893;59.754;10.110;2022-10-15T04:21:03;99690.40;;;12.00
65290;BMP180;51893;59.754;10.110;2022-10-15T04:23:32;99683.80;;;11.90
65290;BMP180;51893;59.754;10.110;2022-10-15T04:26:00;99681.80;;;11.90
65290;BMP180;51893;59.754;10.110;2022-10-15T04:28:29;99678.20;;;11.80
65290;BMP180;51893;59.754;10.110;2022-10-15T04:30:58;99681.60;;;11.80
65290;BMP180;51893;59.754;10.110;2022-10-15T04:33:27;99683.00;;;11.80
65290;BMP180;51893;59.754;10.110;2022-10-15T04:36:12;99679.20;;;11.80
65290;BMP180;51893;59.754;10.110;2022-10-15T04:38:40;99703.60;;;11.80
65290;BMP180;51893;59.754;10.110;2022-10-15T04:41:11;99706.80;;;11.74
65290;BMP180;51893;59.754;10.110;2022-10-15T04:43:42;99675.20;;;11.70
65290;BMP180;51893;59.754;10.110;2022-10-15T04:46:09;99683.60;;;11.60
65290;BMP180;51893;59.754;10.110;2022-10-15T04:48:39;99692.60;;;11.60
65290;BMP180;51893;59.754;10.110;2022-10-15T04:51:19;99698.60;;;11.50
65290;BMP180;51893;59.754;10.110;2022-10-15T04:53:47;99702.60;;;11.50
65290;BMP180;51893;59.754;10.110;2022-10-15T04:56:21;99701.20;;;11.50
65290;BMP180;51893;59.754;10.110;2022-10-15T04:58:51;99700.20;;;11.50
65290;BMP180;51893;59.754;10.110;2022-10-15T05:01:21;99708.00;;;11.50
65290;BMP180;51893;59.754;10.110;2022-10-15T05:03:50;99702.80;;;11.40
65290;BMP180;51893;59.754;10.110;2022-10-15T05:06:20;99705.00;;;11.40
65290;BMP180;51893;59.754;10.110;2022-10-15T05:08:50;99709.40;;;11.30
65290;BMP180;51893;59.754;10.110;2022-10-15T05:11:23;99703.40;;;11.12
65290;BMP180;51893;59.754;10.110;2022-10-15T05:13:55;99709.00;;;10.90
65290;BMP180;51893;59.754;10.110;2022-10-15T05:16:28;99725.20;;;10.92
65290;BMP180;51893;59.754;10.110;2022-10-15T05:19:03;99724.60;;;10.90
65290;BMP180;51893;59.754;10.110;2022-10-15T05:21:35;99731.40;;;10.90
65290;BMP180;51893;59.754;10.110;2022-10-15T05:24:04;99732.40;;;10.80
65290;BMP180;51893;59.754;10.110;2022-10-15T05:26:32;99742.00;;;10.78
65290;BMP180;51893;59.754;10.110;2022-10-15T05:29:00;99745.20;;;10.70
65290;BMP180;51893;59.754;10.110;2022-10-15T05:31:30;99751.40;;;10.70
65290;BMP180;51893;59.754;10.110;2022-10-15T05:34:05;99758.40;;;10.70
65290;BMP180;51893;59.754;10.110;2022-10-15T05:36:34;99759.60;;;10.60
65290;BMP180;51893;59.754;10.110;2022-10-15T05:39:06;99767.80;;;10.50
65290;BMP180;51893;59.754;10.110;2022-10-15T05:41:42;99768.20;;;10.50
65290;BMP180;51893;59.754;10.110;2022-10-15T05:44:14;99768.40;;;10.40
65290;BMP180;51893;59.754;10.110;2022-10-15T05:46:42;99775.60;;;10.30
65290;BMP180;51893;59.754;10.110;2022-10-15T05:49:10;99786.60;;;10.30
65290;BMP180;51893;59.754;10.110;2022-10-15T05:51:37;99788.40;;;10.20
65290;BMP180;51893;59.754;10.110;2022-10-15T05:54:05;99792.00;;;10.20
65290;BMP180;51893;59.754;10.110;2022-10-15T05:56:33;99798.00;;;10.10
65290;BMP180;51893;59.754;10.110;2022-10-15T05:59:01;99798.80;;;10.00
65290;BMP180;51893;59.754;10.110;2022-10-15T06:01:30;99798.40;;;10.10
65290;BMP180;51893;59.754;10.110;2022-10-15T06:03:58;99807.60;;;10.00
65290;BMP180;51893;59.754;10.110;2022-10-15T06:06:26;99813.80;;;10.00
65290;BMP180;51893;59.754;10.110;2022-10-15T06:08:57;99822.40;;;10.00
65290;BMP180;51893;59.754;10.110;2022-10-15T06:11:24;99817.40;;;10.00
65290;BMP180;51893;59.754;10.110;2022-10-15T06:13:52;99818.80;;;9.90
65290;BMP180;51893;59.754;10.110;2022-10-15T06:16:23;99824.20;;;9.80
65290;BMP180;51893;59.754;10.110;2022-10-15T06:18:52;99822.40;;;9.80
65290;BMP180;51893;59.754;10.110;2022-10-15T06:21:20;99834.00;;;9.70
65290;BMP180;51893;59.754;10.110;2022-10-15T06:23:49;99836.20;;;9.70
65290;BMP180;51893;59.754;10.110;2022-10-15T06:26:17;99836.60;;;9.70
65290;BMP180;51893;59.754;10.110;2022-10-15T06:28:45;99837.00;;;9.68
65290;BMP180;51893;59.754;10.110;2022-10-15T06:31:13;99846.20;;;9.68
65290;BMP180;51893;59.754;10.110;2022-10-15T06:33:41;99857.40;;;9.62
65290;BMP180;51893;59.754;10.110;2022-10-15T06:36:10;99870.60;;;9.50
65290;BMP180;51893;59.754;10.110;2022-10-15T06:38:41;99872.80;;;9.40
65290;BMP180;51893;59.754;10.110;2022-10-15T06:41:13;99866.00;;;9.32
65290;BMP180;51893;59.754;10.110;2022-10-15T06:43:44;99865.00;;;9.40
65290;BMP180;51893;59.754;10.110;2022-10-15T06:46:16;99873.20;;;9.40
65290;BMP180;51893;59.754;10.110;2022-10-15T06:48:47;99873.80;;;9.40
65290;BMP180;51893;59.754;10.110;2022-10-15T06:51:16;99884.80;;;9.40
65290;BMP180;51893;59.754;10.110;2022-10-15T06:53:44;99887.40;;;9.40
65290;BMP180;51893;59.754;10.110;2022-10-15T06:56:17;99892.80;;;9.40
65290;BMP180;51893;59.754;10.110;2022-10-15T06:58:45;99892.00;;;9.48
65290;BMP180;51893;59.754;10.110;2022-10-15T07:01:14;99890.00;;;9.50
65290;BMP180;51893;59.754;10.110;2022-10-15T07:03:44;99888.80;;;9.50
65290;BMP180;51893;59.754;10.110;2022-10-15T07:06:12;99892.20;;;9.50
65290;BMP180;51893;59.754;10.110;2022-10-15T07:08:40;99893.00;;;9.50
65290;BMP180;51893;59.754;10.110;2022-10-15T07:11:10;99898.60;;;9.50
65290;BMP180;51893;59.754;10.110;2022-10-15T07:13:42;99901.00;;;9.50
65290;BMP180;51893;59.754;10.110;2022-10-15T07:16:11;99904.00;;;9.50
65290;BMP180;51893;59.754;10.110;2022-10-15T07:18:42;99911.40;;;9.60
65290;BMP180;51893;59.754;10.110;2022-10-15T07:21:22;99910.20;;;9.62
65290;BMP180;51893;59.754;10.110;2022-10-15T07:23:51;99911.40;;;9.80
65290;BMP180;51893;59.754;10.110;2022-10-15T07:26:19;99917.00;;;9.94
65290;BMP180;51893;59.754;10.110;2022-10-15T07:28:47;99918.60;;;10.06
65290;BMP180;51893;59.754;10.110;2022-10-15T07:31:16;99920.60;;;10.10
65290;BMP180;51893;59.754;10.110;2022-10-15T07:33:45;99929.40;;;10.00
65290;BMP180;51893;59.754;10.110;2022-10-15T07:36:13;99944.80;;;10.00
65290;BMP180;51893;59.754;10.110;2022-10-15T07:38:41;99945.80;;;9.90
65290;BMP180;51893;59.754;10.110;2022-10-15T07:41:09;99948.60;;;10.00
65290;BMP180;51893;59.754;10.110;2022-10-15T07:43:39;99942.80;;;10.00
65290;BMP180;51893;59.754;10.110;2022-10-15T07:46:09;99948.00;;;10.08
65290;BMP180;51893;59.754;10.110;2022-10-15T07:48:37;99949.80;;;10.20
65290;BMP180;51893;59.754;10.110;2022-10-15T07:51:06;99950.20;;;10.22
65290;BMP180;51893;59.754;10.110;2022-10-15T07:53:35;99952.60;;;10.20
65290;BMP180;51893;59.754;10.110;2022-10-15T07:56:08;99958.20;;;10.20
65290;BMP180;51893;59.754;10.110;2022-10-15T07:58:37;99962.80;;;10.30
65290;BMP180;51893;59.754;10.110;2022-10-15T08:01:08;99969.20;;;10.36
65290;BMP180;51893;59.754;10.110;2022-10-15T08:03:37;99977.20;;;10.40
65290;BMP180;51893;59.754;10.110;2022-10-15T08:06:07;99980.40;;;10.50
65290;BMP180;51893;59.754;10.110;2022-10-15T08:08:36;99981.20;;;10.60
65290;BMP180;51893;59.754;10.110;2022-10-15T08:11:14;99987.20;;;10.60
65290;BMP180;51893;59.754;10.110;2022-10-15T08:13:46;99992.80;;;10.60
65290;BMP180;51893;59.754;10.110;2022-10-15T08:16:18;100003.20;;;10.60
65290;BMP180;51893;59.754;10.110;2022-10-15T08:18:50;100007.40;;;10.60
65290;BMP180;51893;59.754;10.110;2022-10-15T08:21:19;100005.00;;;10.60
65290;BMP180;51893;59.754;10.110;2022-10-15T08:23:47;100005.60;;;10.74
65290;BMP180;51893;59.754;10.110;2022-10-15T08:26:16;100013.60;;;10.80
65290;BMP180;51893;59.754;10.110;2022-10-15T08:28:52;100023.00;;;10.70
65290;BMP180;51893;59.754;10.110;2022-10-15T08:31:20;100023.00;;;10.62
65290;BMP180;51893;59.754;10.110;2022-10-15T08:33:49;100029.40;;;10.70
65290;BMP180;51893;59.754;10.110;2022-10-15T08:36:18;100026.40;;;10.80
65290;BMP180;51893;59.754;10.110;2022-10-15T08:38:47;100025.20;;;10.90
65290;BMP180;51893;59.754;10.110;2022-10-15T08:41:57;100024.40;;;11.00
65290;BMP180;51893;59.754;10.110;2022-10-15T08:44:33;100028.20;;;11.10
65290;BMP180;51893;59.754;10.110;2022-10-15T08:50:57;100024.40;;;11.20
65290;BMP180;51893;59.754;10.110;2022-10-15T08:53:27;100029.40;;;11.22
65290;BMP180;51893;59.754;10.110;2022-10-15T08:56:03;100030.20;;;11.24
65290;BMP180;51893;59.754;10.110;2022-10-15T08:59:16;100035.20;;;11.30
65290;BMP180;51893;59.754;10.110;2022-10-15T09:02:17;100043.80;;;11.20
65290;BMP180;51893;59.754;10.110;2022-10-15T09:07:48;100052.80;;;11.20
65290;BMP180;51893;59.754;10.110;2022-10-15T09:10:49;100052.60;;;11.20
65290;BMP180;51893;59.754;10.110;2022-10-15T09:13:37;100052.80;;;11.20
65290;BMP180;51893;59.754;10.110;2022-10-15T09:16:27;100054.20;;;11.22
65290;BMP180;51893;59.754;10.110;2022-10-15T09:18:59;100052.40;;;11.28
65290;BMP180;51893;59.754;10.110;2022-10-15T09:21:31;100050.60;;;11.30
65290;BMP180;51893;59.754;10.110;2022-10-15T09:24:03;100054.20;;;11.44
65290;BMP180;51893;59.754;10.110;2022-10-15T09:26:50;100059.80;;;11.60
65290;BMP180;51893;59.754;10.110;2022-10-15T09:32:26;100068.00;;;11.90
65290;BMP180;51893;59.754;10.110;2022-10-15T09:43:31;100085.40;;;12.50
65290;BMP180;51893;59.754;10.110;2022-10-15T09:46:03;100090.40;;;12.40
65290;BMP180;51893;59.754;10.110;2022-10-15T09:52:06;100098.20;;;12.50
65290;BMP180;51893;59.754;10.110;2022-10-15T09:54:56;100107.40;;;12.50
65290;BMP180;51893;59.754;10.110;2022-10-15T09:57:30;100123.00;;;12.50
65290;BMP180;51893;59.754;10.110;2022-10-15T10:00:07;100129.40;;;12.50
65290;BMP180;51893;59.754;10.110;2022-10-15T10:02:38;100136.00;;;12.70
65290;BMP180;51893;59.754;10.110;2022-10-15T10:05:32;100135.80;;;12.88
65290;BMP180;51893;59.754;10.110;2022-10-15T10:08:26;100135.20;;;13.10
65290;BMP180;51893;59.754;10.110;2022-10-15T10:11:04;100135.00;;;13.26
65290;BMP180;51893;59.754;10.110;2022-10-15T10:13:58;100136.40;;;13.40
65290;BMP180;51893;59.754;10.110;2022-10-15T10:16:29;100138.00;;;13.54
65290;BMP180;51893;59.754;10.110;2022-10-15T10:19:14;100143.60;;;13.70
65290;BMP180;51893;59.754;10.110;2022-10-15T10:21:45;100149.20;;;13.80
65290;BMP180;51893;59.754;10.110;2022-10-15T10:24:29;100150.20;;;13.90
65290;BMP180;51893;59.754;10.110;2022-10-15T10:27:02;100154.60;;;14.04
65290;BMP180;51893;59.754;10.110;2022-10-15T10:29:39;100153.60;;;14.20
65290;BMP180;51893;59.754;10.110;2022-10-15T10:32:17;100157.00;;;14.30
65290;BMP180;51893;59.754;10.110;2022-10-15T10:34:47;100164.00;;;14.40
65290;BMP180;51893;59.754;10.110;2022-10-15T10:37:20;100171.20;;;14.40
65290;BMP180;51893;59.754;10.110;2022-10-15T10:39:56;100178.20;;;14.50
65290;BMP180;51893;59.754;10.110;2022-10-15T10:42:32;100182.80;;;14.60
65290;BMP180;51893;59.754;10.110;2022-10-15T10:45:26;100191.00;;;14.62
65290;BMP180;51893;59.754;10.110;2022-10-15T10:47:58;100189.80;;;14.80
65290;BMP180;51893;59.754;10.110;2022-10-15T10:50:33;100195.80;;;15.00
65290;BMP180;51893;59.754;10.110;2022-10-15T10:53:36;100206.20;;;15.00
65290;BMP180;51893;59.754;10.110;2022-10-15T10:56:08;100215.60;;;15.00
65290;BMP180;51893;59.754;10.110;2022-10-15T10:58:41;100220.80;;;15.10
65290;BMP180;51893;59.754;10.110;2022-10-15T11:01:14;100227.20;;;15.20
65290;BMP180;51893;59.754;10.110;2022-10-15T11:03:47;100225.40;;;15.30
65290;BMP180;51893;59.754;10.110;2022-10-15T11:12:36;100234.00;;;15.60
65290;BMP180;51893;59.754;10.110;2022-10-15T11:24:44;100249.20;;;16.00
65290;BMP180;51893;59.754;10.110;2022-10-15T11:42:30;100263.80;;;16.30
65290;BMP180;51893;59.754;10.110;2022-10-15T11:45:42;100270.60;;;16.24
65290;BMP180;51893;59.754;10.110;2022-10-15T11:51:30;100266.40;;;16.22
65290;BMP180;51893;59.754;10.110;2022-10-15T11:54:17;100275.20;;;16.20
65290;BMP180;51893;59.754;10.110;2022-10-15T11:56:52;100282.00;;;16.10
65290;BMP180;51893;59.754;10.110;2022-10-15T12:00:00;100287.80;;;15.94
65290;BMP180;51893;59.754;10.110;2022-10-15T12:02:37;100296.20;;;15.70
65290;BMP180;51893;59.754;10.110;2022-10-15T12:05:09;100290.40;;;15.50
65290;BMP180;51893;59.754;10.110;2022-10-15T12:07:44;100295.40;;;15.50
65290;BMP180;51893;59.754;10.110;2022-10-15T12:13:09;100303.20;;;15.38
65290;BMP180;51893;59.754;10.110;2022-10-15T12:18:49;100298.60;;;15.40
65290;BMP180;51893;59.754;10.110;2022-10-15T12:27:33;100318.20;;;15.26
65290;BMP180;51893;59.754;10.110;2022-10-15T12:32:41;100318.80;;;14.98
65290;BMP180;51893;59.754;10.110;2022-10-15T12:38:20;100325.80;;;14.70
65290;BMP180;51893;59.754;10.110;2022-10-15T12:41:11;100332.20;;;14.60
65290;BMP180;51893;59.754;10.110;2022-10-15T12:43:44;100341.00;;;14.52
65290;BMP180;51893;59.754;10.110;2022-10-15T12:46:15;100349.00;;;14.40
65290;BMP180;51893;59.754;10.110;2022-10-15T12:48:45;100348.60;;;14.30
65290;BMP180;51893;59.754;10.110;2022-10-15T12:53:53;100333.00;;;14.20
65290;BMP180;51893;59.754;10.110;2022-10-15T12:56:38;100330.20;;;14.20
65290;BMP180;51893;59.754;10.110;2022-10-15T12:59:53;100321.20;;;14.22
65290;BMP180;51893;59.754;10.110;2022-10-15T13:02:41;100321.60;;;14.18
65290;BMP180;51893;59.754;10.110;2022-10-15T13:05:33;100324.20;;;14.00
65290;BMP180;51893;59.754;10.110;2022-10-15T13:08:17;100331.80;;;13.90
65290;BMP180;51893;59.754;10.110;2022-10-15T13:10:56;100321.20;;;13.90
65290;BMP180;51893;59.754;10.110;2022-10-15T13:13:28;100319.80;;;13.80
65290;BMP180;51893;59.754;10.110;2022-10-15T13:16:06;100314.80;;;13.80
65290;BMP180;51893;59.754;10.110;2022-10-15T13:18:41;100306.80;;;13.80
65290;BMP180;51893;59.754;10.110;2022-10-15T13:21:17;100300.20;;;13.80
65290;BMP180;51893;59.754;10.110;2022-10-15T13:23:50;100304.20;;;13.80
65290;BMP180;51893;59.754;10.110;2022-10-15T13:26:28;100303.00;;;13.78
65290;BMP180;51893;59.754;10.110;2022-10-15T13:28:59;100311.80;;;13.62
65290;BMP180;51893;59.754;10.110;2022-10-15T13:31:35;100316.60;;;13.50
65290;BMP180;51893;59.754;10.110;2022-10-15T13:34:30;100319.20;;;13.50
65290;BMP180;51893;59.754;10.110;2022-10-15T13:37:03;100311.20;;;13.50
65290;BMP180;51893;59.754;10.110;2022-10-15T13:39:38;100303.80;;;13.50
65290;BMP180;51893;59.754;10.110;2022-10-15T13:42:22;100305.20;;;13.52
65290;BMP180;51893;59.754;10.110;2022-10-15T13:45:17;100304.00;;;13.50
65290;BMP180;51893;59.754;10.110;2022-10-15T13:47:50;100296.20;;;13.50
65290;BMP180;51893;59.754;10.110;2022-10-15T13:53:15;100272.40;;;13.26
65290;BMP180;51893;59.754;10.110;2022-10-15T13:55:48;100271.20;;;13.10
65290;BMP180;51893;59.754;10.110;2022-10-15T13:58:27;100274.80;;;12.96
65290;BMP180;51893;59.754;10.110;2022-10-15T14:03:31;100269.00;;;12.82
65290;BMP180;51893;59.754;10.110;2022-10-15T14:06:29;100260.00;;;12.80
65290;BMP180;51893;59.754;10.110;2022-10-15T14:09:36;100247.20;;;12.80
65290;BMP180;51893;59.754;10.110;2022-10-15T14:12:10;100243.80;;;12.80
65290;BMP180;51893;59.754;10.110;2022-10-15T14:14:43;100247.60;;;12.80
65290;BMP180;51893;59.754;10.110;2022-10-15T14:20:03;100233.60;;;12.70
65290;BMP180;51893;59.754;10.110;2022-10-15T14:22:56;100236.20;;;12.60
65290;BMP180;51893;59.754;10.110;2022-10-15T14:25:25;100230.00;;;12.50
65290;BMP180;51893;59.754;10.110;2022-10-15T14:27:55;100219.60;;;12.50
65290;BMP180;51893;59.754;10.110;2022-10-15T14:30:33;100219.60;;;12.60
65290;BMP180;51893;59.754;10.110;2022-10-15T14:36:21;100212.80;;;12.50
65290;BMP180;51893;59.754;10.110;2022-10-15T14:38:53;100206.00;;;12.40
65290;BMP180;51893;59.754;10.110;2022-10-15T14:41:30;100207.20;;;12.38
65290;BMP180;51893;59.754;10.110;2022-10-15T14:46:43;100203.00;;;12.22
65290;BMP180;51893;59.754;10.110;2022-10-15T14:49:29;100192.60;;;12.24
65290;BMP180;51893;59.754;10.110;2022-10-15T14:52:11;100198.20;;;12.24
65290;BMP180;51893;59.754;10.110;2022-10-15T14:55:05;100201.40;;;12.20
65290;BMP180;51893;59.754;10.110;2022-10-15T14:57:43;100209.20;;;12.10
65290;BMP180;51893;59.754;10.110;2022-10-15T15:03:04;100206.20;;;12.10
65290;BMP180;51893;59.754;10.110;2022-10-15T15:05:52;100207.80;;;12.10
65290;BMP180;51893;59.754;10.110;2022-10-15T15:08:21;100213.00;;;12.10
65290;BMP180;51893;59.754;10.110;2022-10-15T15:10:51;100202.20;;;12.06
65290;BMP180;51893;59.754;10.110;2022-10-15T15:13:30;100204.20;;;12.10
65290;BMP180;51893;59.754;10.110;2022-10-15T15:16:02;100202.80;;;12.10
65290;BMP180;51893;59.754;10.110;2022-10-15T15:18:32;100204.00;;;12.00
65290;BMP180;51893;59.754;10.110;2022-10-15T15:21:11;100199.00;;;12.00
65290;BMP180;51893;59.754;10.110;2022-10-15T15:23:40;100201.80;;;12.00
65290;BMP180;51893;59.754;10.110;2022-10-15T15:26:11;100202.80;;;11.98
65290;BMP180;51893;59.754;10.110;2022-10-15T15:28:41;100198.80;;;11.90
65290;BMP180;51893;59.754;10.110;2022-10-15T15:31:16;100193.80;;;11.90
65290;BMP180;51893;59.754;10.110;2022-10-15T15:33:45;100176.60;;;12.00
65290;BMP180;51893;59.754;10.110;2022-10-15T15:36:16;100169.80;;;12.00
65290;BMP180;51893;59.754;10.110;2022-10-15T15:38:50;100157.20;;;12.00
65290;BMP180;51893;59.754;10.110;2022-10-15T15:41:23;100154.00;;;12.00
65290;BMP180;51893;59.754;10.110;2022-10-15T15:43:52;100160.20;;;11.94
65290;BMP180;51893;59.754;10.110;2022-10-15T15:46:24;100164.80;;;11.90
65290;BMP180;51893;59.754;10.110;2022-10-15T15:48:52;100173.60;;;11.90
65290;BMP180;51893;59.754;10.110;2022-10-15T15:51:26;100185.00;;;11.80
65290;BMP180;51893;59.754;10.110;2022-10-15T15:53:57;100195.20;;;11.80
65290;BMP180;51893;59.754;10.110;2022-10-15T15:56:28;100196.60;;;11.80
65290;BMP180;51893;59.754;10.110;2022-10-15T15:58:55;100200.20;;;11.70
65290;BMP180;51893;59.754;10.110;2022-10-15T16:01:24;100201.00;;;11.70
65290;BMP180;51893;59.754;10.110;2022-10-15T16:03:53;100194.00;;;11.70
65290;BMP180;51893;59.754;10.110;2022-10-15T16:06:21;100184.40;;;11.70
65290;BMP180;51893;59.754;10.110;2022-10-15T16:08:50;100179.00;;;11.62
65290;BMP180;51893;59.754;10.110;2022-10-15T16:11:20;100174.60;;;11.60
65290;BMP180;51893;59.754;10.110;2022-10-15T16:13:48;100159.00;;;11.60
65290;BMP180;51893;59.754;10.110;2022-10-15T16:16:20;100152.20;;;11.60
65290;BMP180;51893;59.754;10.110;2022-10-15T16:18:49;100148.40;;;11.60
65290;BMP180;51893;59.754;10.110;2022-10-15T16:21:25;100140.60;;;11.60
65290;BMP180;51893;59.754;10.110;2022-10-15T16:23:54;100140.20;;;11.60
65290;BMP180;51893;59.754;10.110;2022-10-15T16:26:26;100134.40;;;11.60
65290;BMP180;51893;59.754;10.110;2022-10-15T16:28:54;100136.00;;;11.60